Portada
METAR-TAF:

METAR-TAF

Aeroports :

Shōnai, Japó

latitud: 38-49N, longitud: 139-47E, altitud: 22 m

Observació

L'informe es va fer fa 53 minuts, a les 00:00 UTC
Vent 5 kt del Est/Sud-Est
Temperatura 11°C
Humitat 62%
Pressió 1019 hPa
Visibilitat 10 km o més
sense núvols per sota de 1500 mi sense presència de cumulonimbus.

METAR: RJSY 200000Z 12005KT CAVOK 11/04 Q1019

Hora: 09:53 (00:53 UTC)


TAF: manca

Observacions i pronòstics meteorològics de més de 4000 aeroports (METAR i TAF).

Les estacions disponibles són els punts grocs i vermells al mapa.

Posi el ratolí al punt desitjat per veure el nom de l'estació.

Feu clic per veure les observacions i els pronòstics meteorològics.

Per canviar el mapa: feu clic els botons verds amb una creu de color negre per apropar; al botó verd amb un guió per allunyar la imatge; o en les fletxes verdes per a mapes adjacents.


METAR-TAF: